sensor_id;sensor_type;location;lat;lon;timestamp;pressure;altitude;pressure_sealevel;temperature;humidity
57904;BME280;43720;47.462;19.030;2023-04-26T03:55:09;99832.06;;;9.13;70.20
57904;BME280;43720;47.462;19.030;2023-04-26T03:58:13;99840.00;;;9.22;69.60
57904;BME280;43720;47.462;19.030;2023-04-26T04:01:16;99838.16;;;9.15;69.81
57904;BME280;43720;47.462;19.030;2023-04-26T04:04:19;99840.81;;;9.21;68.73
57904;BME280;43720;47.462;19.030;2023-04-26T04:07:22;99843.44;;;9.18;68.71
57904;BME280;43720;47.462;19.030;2023-04-26T04:10:24;99853.78;;;9.14;69.27
57904;BME280;43720;47.462;19.030;2023-04-26T04:13:27;99858.94;;;9.09;69.59
57904;BME280;43720;47.462;19.030;2023-04-26T04:16:29;99865.13;;;9.14;69.01
57904;BME280;43720;47.462;19.030;2023-04-26T04:19:32;99867.72;;;9.14;68.13
57904;BME280;43720;47.462;19.030;2023-04-26T04:22:35;99866.84;;;9.15;69.57
57904;BME280;43720;47.462;19.030;2023-04-26T04:25:38;99860.00;;;9.23;68.77
57904;BME280;43720;47.462;19.030;2023-04-26T04:28:41;99868.66;;;9.19;69.44
57904;BME280;43720;47.462;19.030;2023-04-26T04:31:43;99872.06;;;9.15;67.64
57904;BME280;43720;47.462;19.030;2023-04-26T04:34:46;99881.78;;;9.28;68.58
57904;BME280;43720;47.462;19.030;2023-04-26T04:37:50;99890.56;;;9.34;67.70
57904;BME280;43720;47.462;19.030;2023-04-26T04:40:53;99896.66;;;9.36;67.67
57904;BME280;43720;47.462;19.030;2023-04-26T04:43:55;99903.56;;;9.30;67.25
57904;BME280;43720;47.462;19.030;2023-04-26T04:46:57;99906.25;;;9.40;68.58
57904;BME280;43720;47.462;19.030;2023-04-26T04:50:00;99901.06;;;9.41;67.47
57904;BME280;43720;47.462;19.030;2023-04-26T04:53:03;99913.34;;;9.51;68.38
57904;BME280;43720;47.462;19.030;2023-04-26T04:56:05;99920.31;;;9.49;68.86
57904;BME280;43720;47.462;19.030;2023-04-26T04:59:09;99922.91;;;9.51;69.05
57904;BME280;43720;47.462;19.030;2023-04-26T05:02:12;99923.78;;;9.50;67.91
57904;BME280;43720;47.462;19.030;2023-04-26T05:05:15;99930.03;;;9.64;66.32
57904;BME280;43720;47.462;19.030;2023-04-26T05:08:17;99941.31;;;9.63;66.74
57904;BME280;43720;47.462;19.030;2023-04-26T05:11:20;99935.00;;;9.41;65.52
57904;BME280;43720;47.462;19.030;2023-04-26T05:14:22;99944.59;;;9.47;66.37
57904;BME280;43720;47.462;19.030;2023-04-26T05:17:25;99948.13;;;9.49;66.47
57904;BME280;43720;47.462;19.030;2023-04-26T05:20:27;99932.37;;;9.41;66.09
57904;BME280;43720;47.462;19.030;2023-04-26T05:23:30;99946.31;;;9.42;64.74
57904;BME280;43720;47.462;19.030;2023-04-26T05:26:34;99941.84;;;9.35;65.77
57904;BME280;43720;47.462;19.030;2023-04-26T05:29:39;99952.41;;;9.44;64.22
57904;BME280;43720;47.462;19.030;2023-04-26T05:32:42;99949.84;;;9.48;65.94
57904;BME280;43720;47.462;19.030;2023-04-26T05:35:45;99948.13;;;9.49;65.06
57904;BME280;43720;47.462;19.030;2023-04-26T05:38:48;99960.41;;;9.59;65.09
57904;BME280;43720;47.462;19.030;2023-04-26T05:41:51;99952.53;;;9.53;62.96
57904;BME280;43720;47.462;19.030;2023-04-26T05:44:57;99960.41;;;9.58;61.58
57904;BME280;43720;47.462;19.030;2023-04-26T05:48:01;99966.50;;;9.58;61.19
57904;BME280;43720;47.462;19.030;2023-04-26T05:51:04;99962.81;;;9.44;59.55
57904;BME280;43720;47.462;19.030;2023-04-26T05:54:06;99968.00;;;9.38;59.62
57904;BME280;43720;47.462;19.030;2023-04-26T05:57:09;99980.38;;;9.54;60.60
57904;BME280;43720;47.462;19.030;2023-04-26T06:00:12;99966.50;;;9.60;58.67
57904;BME280;43720;47.462;19.030;2023-04-26T06:03:14;99972.03;;;9.87;60.85
57904;BME280;43720;47.462;19.030;2023-04-26T06:06:18;99969.44;;;9.90;58.42
57904;BME280;43720;47.462;19.030;2023-04-26T06:09:22;99980.75;;;9.89;56.97
57904;BME280;43720;47.462;19.030;2023-04-26T06:12:25;99980.50;;;9.68;55.43
57904;BME280;43720;47.462;19.030;2023-04-26T06:15:34;99984.16;;;9.80;59.39
57904;BME280;43720;47.462;19.030;2023-04-26T06:18:37;99986.81;;;9.85;55.13
57904;BME280;43720;47.462;19.030;2023-04-26T06:21:40;99998.22;;;9.93;56.61
57904;BME280;43720;47.462;19.030;2023-04-26T06:24:43;99998.28;;;10.01;56.21
57904;BME280;43720;47.462;19.030;2023-04-26T06:27:45;100005.16;;;9.93;53.91
57904;BME280;43720;47.462;19.030;2023-04-26T06:30:47;99992.03;;;9.84;54.16
57904;BME280;43720;47.462;19.030;2023-04-26T06:33:50;99992.19;;;9.99;55.21
57904;BME280;43720;47.462;19.030;2023-04-26T06:36:53;99988.78;;;10.09;54.13
57904;BME280;43720;47.462;19.030;2023-04-26T06:39:56;99990.47;;;10.02;54.87
57904;BME280;43720;47.462;19.030;2023-04-26T06:42:58;99983.59;;;10.11;53.58
57904;BME280;43720;47.462;19.030;2023-04-26T06:46:05;99975.84;;;10.20;54.81
57904;BME280;43720;47.462;19.030;2023-04-26T06:49:08;99983.00;;;10.35;54.03
57904;BME280;43720;47.462;19.030;2023-04-26T06:52:12;99984.78;;;10.39;52.54
57904;BME280;43720;47.462;19.030;2023-04-26T06:55:14;99992.75;;;10.56;54.27
57904;BME280;43720;47.462;19.030;2023-04-26T06:58:17;99994.37;;;10.43;51.57
57904;BME280;43720;47.462;19.030;2023-04-26T07:01:19;99991.72;;;10.38;51.24
57904;BME280;43720;47.462;19.030;2023-04-26T07:04:22;99985.72;;;10.45;51.80
57904;BME280;43720;47.462;19.030;2023-04-26T07:07:24;99996.19;;;10.53;53.43
57904;BME280;43720;47.462;19.030;2023-04-26T07:10:27;99988.34;;;10.53;51.87
57904;BME280;43720;47.462;19.030;2023-04-26T07:13:29;99986.72;;;10.67;52.66
57904;BME280;43720;47.462;19.030;2023-04-26T07:16:32;99997.34;;;10.86;52.50
57904;BME280;43720;47.462;19.030;2023-04-26T07:19:35;99994.78;;;10.95;50.88
57904;BME280;43720;47.462;19.030;2023-04-26T07:22:37;100011.41;;;11.00;52.09
57904;BME280;43720;47.462;19.030;2023-04-26T07:25:40;100005.22;;;10.90;50.38
57904;BME280;43720;47.462;19.030;2023-04-26T07:28:42;100019.25;;;11.01;48.67
57904;BME280;43720;47.462;19.030;2023-04-26T07:31:45;100016.69;;;11.09;48.57
57904;BME280;43720;47.462;19.030;2023-04-26T07:34:47;100015.78;;;11.06;45.70
57904;BME280;43720;47.462;19.030;2023-04-26T07:37:49;100033.34;;;11.26;45.87
57904;BME280;43720;47.462;19.030;2023-04-26T07:40:52;100025.62;;;11.49;45.43
57904;BME280;43720;47.462;19.030;2023-04-26T07:43:54;100026.56;;;11.64;44.20
57904;BME280;43720;47.462;19.030;2023-04-26T07:46:57;100026.72;;;11.90;45.55
57904;BME280;43720;47.462;19.030;2023-04-26T07:49:59;100026.75;;;12.01;44.11
57904;BME280;43720;47.462;19.030;2023-04-26T07:53:01;100038.16;;;12.16;42.87
57904;BME280;43720;47.462;19.030;2023-04-26T07:56:04;100035.41;;;11.84;41.15
57904;BME280;43720;47.462;19.030;2023-04-26T07:59:08;100042.47;;;12.11;42.65
57904;BME280;43720;47.462;19.030;2023-04-26T08:02:11;100035.56;;;12.32;42.99
57904;BME280;43720;47.462;19.030;2023-04-26T08:05:14;100046.91;;;12.34;43.09
57904;BME280;43720;47.462;19.030;2023-04-26T08:08:17;100057.44;;;12.43;42.99
57904;BME280;43720;47.462;19.030;2023-04-26T08:11:20;100049.50;;;12.18;43.28
57904;BME280;43720;47.462;19.030;2023-04-26T08:14:22;100051.19;;;12.07;43.86
57904;BME280;43720;47.462;19.030;2023-04-26T08:17:25;100041.59;;;12.08;45.21
57904;BME280;43720;47.462;19.030;2023-04-26T08:20:28;100055.56;;;12.11;44.25
57904;BME280;43720;47.462;19.030;2023-04-26T08:23:34;100069.56;;;12.13;42.11
57904;BME280;43720;47.462;19.030;2023-04-26T08:26:37;100053.03;;;12.36;44.00
57904;BME280;43720;47.462;19.030;2023-04-26T08:29:39;100062.66;;;12.46;41.80
57904;BME280;43720;47.462;19.030;2023-04-26T08:32:42;100079.28;;;12.48;41.46
57904;BME280;43720;47.462;19.030;2023-04-26T08:35:44;100057.37;;;12.29;41.45
57904;BME280;43720;47.462;19.030;2023-04-26T08:38:46;100060.00;;;12.31;42.40
57904;BME280;43720;47.462;19.030;2023-04-26T08:41:52;100051.31;;;12.53;41.32
57904;BME280;43720;47.462;19.030;2023-04-26T08:45:02;100064.41;;;12.36;41.31
57904;BME280;43720;47.462;19.030;2023-04-26T08:48:09;100059.06;;;12.12;39.74
57904;BME280;43720;47.462;19.030;2023-04-26T08:51:15;100058.22;;;12.19;40.02
57904;BME280;43720;47.462;19.030;2023-04-26T08:54:18;100081.88;;;12.49;39.18
57904;BME280;43720;47.462;19.030;2023-04-26T08:57:23;100077.50;;;12.50;40.69
57904;BME280;43720;47.462;19.030;2023-04-26T09:00:26;100076.59;;;12.23;39.87
57904;BME280;43720;47.462;19.030;2023-04-26T09:03:28;100071.41;;;12.54;40.32
57904;BME280;43720;47.462;19.030;2023-04-26T09:06:34;100073.16;;;12.52;39.91
57904;BME280;43720;47.462;19.030;2023-04-26T09:09:41;100073.16;;;12.49;37.92
57904;BME280;43720;47.462;19.030;2023-04-26T09:12:43;100071.41;;;12.60;40.48
57904;BME280;43720;47.462;19.030;2023-04-26T09:15:47;100064.41;;;12.78;40.19
57904;BME280;43720;47.462;19.030;2023-04-26T09:18:50;100070.53;;;12.64;38.35
57904;BME280;43720;47.462;19.030;2023-04-26T09:21:53;100060.94;;;12.80;39.86
57904;BME280;43720;47.462;19.030;2023-04-26T09:25:01;100081.06;;;13.00;41.44
57904;BME280;43720;47.462;19.030;2023-04-26T09:28:18;100067.06;;;13.10;39.12
57904;BME280;43720;47.462;19.030;2023-04-26T09:31:36;100066.16;;;13.12;38.90
57904;BME280;43720;47.462;19.030;2023-04-26T09:34:45;100071.44;;;13.09;38.38
57904;BME280;43720;47.462;19.030;2023-04-26T09:41:21;100078.44;;;13.16;40.08
57904;BME280;43720;47.462;19.030;2023-04-26T09:44:24;100074.06;;;13.06;40.35
57904;BME280;43720;47.462;19.030;2023-04-26T09:47:26;100092.41;;;13.00;39.24
57904;BME280;43720;47.462;19.030;2023-04-26T09:50:30;100078.44;;;12.63;37.24
57904;BME280;43720;47.462;19.030;2023-04-26T09:53:37;100088.06;;;12.97;38.67
57904;BME280;43720;47.462;19.030;2023-04-26T09:56:40;100079.31;;;13.29;38.69
57904;BME280;43720;47.462;19.030;2023-04-26T09:59:46;100050.44;;;13.11;37.58
57904;BME280;43720;47.462;19.030;2023-04-26T10:02:49;100062.69;;;13.30;37.33
57904;BME280;43720;47.462;19.030;2023-04-26T10:05:51;100073.16;;;13.47;39.04
57904;BME280;43720;47.462;19.030;2023-04-26T10:08:55;100065.25;;;13.47;36.65
57904;BME280;43720;47.462;19.030;2023-04-26T10:11:58;100066.12;;;13.64;38.66
57904;BME280;43720;47.462;19.030;2023-04-26T10:15:02;100056.44;;;13.73;34.84
57904;BME280;43720;47.462;19.030;2023-04-26T10:18:05;100059.94;;;13.76;37.16
57904;BME280;43720;47.462;19.030;2023-04-26T10:21:29;100060.69;;;14.01;35.41
57904;BME280;43720;47.462;19.030;2023-04-26T10:24:35;100059.88;;;13.91;35.06
57904;BME280;43720;47.462;19.030;2023-04-26T10:30:56;100045.19;;;13.26;34.88
57904;BME280;43720;47.462;19.030;2023-04-26T10:34:21;100043.41;;;13.34;35.10
57904;BME280;43720;47.462;19.030;2023-04-26T10:37:24;100080.19;;;13.20;32.56
57904;BME280;43720;47.462;19.030;2023-04-26T10:43:28;100071.44;;;13.06;35.94
57904;BME280;43720;47.462;19.030;2023-04-26T10:46:36;100074.03;;;13.15;36.47
57904;BME280;43720;47.462;19.030;2023-04-26T10:49:43;100064.37;;;13.57;34.28
57904;BME280;43720;47.462;19.030;2023-04-26T10:56:07;100051.25;;;13.63;35.06
57904;BME280;43720;47.462;19.030;2023-04-26T10:59:13;100068.56;;;14.10;37.30
57904;BME280;43720;47.462;19.030;2023-04-26T11:05:54;100065.81;;;14.33;36.00
57904;BME280;43720;47.462;19.030;2023-04-26T11:08:58;100076.66;;;13.46;35.34
57904;BME280;43720;47.462;19.030;2023-04-26T11:12:02;100068.81;;;13.11;35.62
57904;BME280;43720;47.462;19.030;2023-04-26T11:15:05;100089.78;;;13.15;35.42
57904;BME280;43720;47.462;19.030;2023-04-26T11:18:08;100072.31;;;13.31;36.18
57904;BME280;43720;47.462;19.030;2023-04-26T11:21:11;100077.50;;;13.60;37.00
57904;BME280;43720;47.462;19.030;2023-04-26T11:24:16;100065.03;;;14.17;33.66
57904;BME280;43720;47.462;19.030;2023-04-26T11:27:18;100063.91;;;14.58;33.23
57904;BME280;43720;47.462;19.030;2023-04-26T11:30:20;100061.59;;;13.99;33.51
57904;BME280;43720;47.462;19.030;2023-04-26T11:33:23;100091.47;;;13.76;36.47
57904;BME280;43720;47.462;19.030;2023-04-26T11:36:25;100084.50;;;13.61;34.66
57904;BME280;43720;47.462;19.030;2023-04-26T11:39:30;100081.00;;;13.64;34.97
57904;BME280;43720;47.462;19.030;2023-04-26T11:42:32;100071.28;;;13.86;34.82
57904;BME280;43720;47.462;19.030;2023-04-26T11:45:36;100079.09;;;14.04;33.44
57904;BME280;43720;47.462;19.030;2023-04-26T11:48:39;100062.72;;;15.01;31.36
57904;BME280;43720;47.462;19.030;2023-04-26T11:51:42;100080.53;;;15.68;29.72
57904;BME280;43720;47.462;19.030;2023-04-26T11:54:45;100073.41;;;14.81;31.88
57904;BME280;43720;47.462;19.030;2023-04-26T11:57:49;100076.47;;;14.01;31.98
57904;BME280;43720;47.462;19.030;2023-04-26T12:00:55;100070.47;;;13.68;33.34
57904;BME280;43720;47.462;19.030;2023-04-26T12:03:59;100074.06;;;13.28;33.20
57904;BME280;43720;47.462;19.030;2023-04-26T12:07:03;100087.13;;;13.64;35.87
57904;BME280;43720;47.462;19.030;2023-04-26T12:10:19;100080.06;;;13.77;34.79
57904;BME280;43720;47.462;19.030;2023-04-26T12:13:24;100076.03;;;14.84;32.66
57904;BME280;43720;47.462;19.030;2023-04-26T12:16:26;100071.13;;;15.36;30.83
57904;BME280;43720;47.462;19.030;2023-04-26T12:19:35;100070.84;;;14.72;32.26
57904;BME280;43720;47.462;19.030;2023-04-26T12:22:38;100073.69;;;14.33;32.05
57904;BME280;43720;47.462;19.030;2023-04-26T12:25:50;100076.41;;;14.15;35.03
57904;BME280;43720;47.462;19.030;2023-04-26T12:28:53;100074.78;;;13.88;33.71
57904;BME280;43720;47.462;19.030;2023-04-26T12:31:59;100083.41;;;14.19;36.37
57904;BME280;43720;47.462;19.030;2023-04-26T12:35:03;100086.94;;;14.13;35.01
57904;BME280;43720;47.462;19.030;2023-04-26T12:38:05;100084.13;;;14.44;31.11
57904;BME280;43720;47.462;19.030;2023-04-26T12:41:08;100092.91;;;14.49;33.40
57904;BME280;43720;47.462;19.030;2023-04-26T12:44:11;100096.50;;;14.30;31.59
57904;BME280;43720;47.462;19.030;2023-04-26T12:47:13;100087.97;;;13.73;32.93
57904;BME280;43720;47.462;19.030;2023-04-26T12:50:16;100095.84;;;13.73;33.72
57904;BME280;43720;47.462;19.030;2023-04-26T12:53:20;100087.91;;;13.94;33.95
57904;BME280;43720;47.462;19.030;2023-04-26T12:56:23;100088.81;;;13.84;33.82
57904;BME280;43720;47.462;19.030;2023-04-26T12:59:25;100094.16;;;13.50;33.95
57904;BME280;43720;47.462;19.030;2023-04-26T13:02:27;100111.69;;;13.24;34.62
57904;BME280;43720;47.462;19.030;2023-04-26T13:05:30;100111.69;;;13.33;37.29
57904;BME280;43720;47.462;19.030;2023-04-26T13:08:33;100110.81;;;13.37;36.54
57904;BME280;43720;47.462;19.030;2023-04-26T13:11:35;100115.22;;;13.29;35.14
57904;BME280;43720;47.462;19.030;2023-04-26T13:14:37;100118.69;;;13.34;35.54
57904;BME280;43720;47.462;19.030;2023-04-26T13:17:40;100120.44;;;13.35;34.33
57904;BME280;43720;47.462;19.030;2023-04-26T13:20:44;100115.13;;;13.75;36.60
57904;BME280;43720;47.462;19.030;2023-04-26T13:23:46;100098.53;;;13.60;33.74
57904;BME280;43720;47.462;19.030;2023-04-26T13:26:48;100110.78;;;13.52;34.58
57904;BME280;43720;47.462;19.030;2023-04-26T13:29:51;100115.16;;;13.19;36.12
57904;BME280;43720;47.462;19.030;2023-04-26T13:32:53;100131.78;;;13.03;34.71
57904;BME280;43720;47.462;19.030;2023-04-26T13:35:58;100134.41;;;13.12;37.73
57904;BME280;43720;47.462;19.030;2023-04-26T13:39:00;100143.16;;;12.88;36.89
57904;BME280;43720;47.462;19.030;2023-04-26T13:42:05;100123.03;;;12.92;34.12
57904;BME280;43720;47.462;19.030;2023-04-26T13:45:07;100109.91;;;13.07;33.47
57904;BME280;43720;47.462;19.030;2023-04-26T13:48:11;100123.06;;;13.33;33.31
57904;BME280;43720;47.462;19.030;2023-04-26T13:51:13;100115.13;;;13.73;32.86
57904;BME280;43720;47.462;19.030;2023-04-26T13:54:16;100118.59;;;13.83;34.46
57904;BME280;43720;47.462;19.030;2023-04-26T13:57:18;100117.72;;;13.78;33.39
57904;BME280;43720;47.462;19.030;2023-04-26T14:00:21;100134.44;;;13.43;33.35
57904;BME280;43720;47.462;19.030;2023-04-26T14:03:24;100141.44;;;13.35;36.22
57904;BME280;43720;47.462;19.030;2023-04-26T14:06:27;100137.03;;;13.18;34.25
57904;BME280;43720;47.462;19.030;2023-04-26T14:09:30;100137.06;;;13.28;36.84
57904;BME280;43720;47.462;19.030;2023-04-26T14:12:33;100148.41;;;13.08;35.88
57904;BME280;43720;47.462;19.030;2023-04-26T14:15:36;100137.03;;;12.94;35.61
57904;BME280;43720;47.462;19.030;2023-04-26T14:18:38;100131.78;;;12.92;35.80
57904;BME280;43720;47.462;19.030;2023-04-26T14:21:46;100139.66;;;12.82;35.07
57904;BME280;43720;47.462;19.030;2023-04-26T14:24:48;100141.38;;;12.77;36.55
57904;BME280;43720;47.462;19.030;2023-04-26T14:27:51;100134.41;;;13.00;34.29
57904;BME280;43720;47.462;19.030;2023-04-26T14:30:54;100131.22;;;14.91;32.17
57904;BME280;43720;47.462;19.030;2023-04-26T14:33:57;100123.34;;;17.65;27.56
57904;BME280;43720;47.462;19.030;2023-04-26T14:37:00;100121.66;;;19.26;25.49
57904;BME280;43720;47.462;19.030;2023-04-26T14:40:05;100118.81;;;18.18;27.79
57904;BME280;43720;47.462;19.030;2023-04-26T14:43:08;100137.09;;;16.80;29.97
57904;BME280;43720;47.462;19.030;2023-04-26T14:46:12;100137.53;;;15.77;29.81
57904;BME280;43720;47.462;19.030;2023-04-26T14:49:14;100141.69;;;14.98;30.36
57904;BME280;43720;47.462;19.030;2023-04-26T14:52:17;100138.41;;;14.66;34.27
57904;BME280;43720;47.462;19.030;2023-04-26T14:55:20;100145.59;;;14.23;33.24
57904;BME280;43720;47.462;19.030;2023-04-26T14:58:25;100150.94;;;13.97;34.87
57904;BME280;43720;47.462;19.030;2023-04-26T15:01:29;100158.00;;;13.84;34.93
57904;BME280;43720;47.462;19.030;2023-04-26T15:04:31;100161.59;;;13.28;34.23
57904;BME280;43720;47.462;19.030;2023-04-26T15:07:34;100166.78;;;13.11;34.43
57904;BME280;43720;47.462;19.030;2023-04-26T15:10:36;100165.00;;;12.80;34.49
57904;BME280;43720;47.462;19.030;2023-04-26T15:13:38;100161.44;;;12.61;35.57
57904;BME280;43720;47.462;19.030;2023-04-26T15:16:41;100172.91;;;12.90;34.36
57904;BME280;43720;47.462;19.030;2023-04-26T15:19:43;100169.34;;;12.78;33.88
57904;BME280;43720;47.462;19.030;2023-04-26T15:22:45;100168.47;;;12.77;36.89
57904;BME280;43720;47.462;19.030;2023-04-26T15:25:48;100171.94;;;12.65;35.46
57904;BME280;43720;47.462;19.030;2023-04-26T15:28:50;100168.50;;;12.76;36.98
57904;BME280;43720;47.462;19.030;2023-04-26T15:31:53;100168.47;;;12.72;37.73
57904;BME280;43720;47.462;19.030;2023-04-26T15:34:55;100164.12;;;12.93;35.76
57904;BME280;43720;47.462;19.030;2023-04-26T15:37:58;100163.31;;;13.43;37.25
57904;BME280;43720;47.462;19.030;2023-04-26T15:41:00;100158.03;;;13.61;34.92
57904;BME280;43720;47.462;19.030;2023-04-26T15:44:02;100157.97;;;13.98;35.31
57904;BME280;43720;47.462;19.030;2023-04-26T15:47:05;100161.44;;;14.08;33.16
57904;BME280;43720;47.462;19.030;2023-04-26T15:50:07;100160.62;;;13.95;31.17
57904;BME280;43720;47.462;19.030;2023-04-26T15:53:10;100151.00;;;13.85;31.52
57904;BME280;43720;47.462;19.030;2023-04-26T15:56:13;100161.56;;;13.63;33.45
57904;BME280;43720;47.462;19.030;2023-04-26T15:59:16;100171.22;;;13.25;34.31
57904;BME280;43720;47.462;19.030;2023-04-26T16:02:18;100174.62;;;12.87;34.13
57904;BME280;43720;47.462;19.030;2023-04-26T16:05:21;100183.34;;;12.70;34.25
